Crown Point, IN

8:05 AM CST on November 26, 2014 (GMT -0600)
Stillwater | Change Station
CLOSE
Current Station
Personal Weather Station
Location: Crown Point, IN
Elevation: 781 ft
Nearby Weather Stations
Active Advisory: Flood Warning

Elev 781 ft 41.39 °N, 87.34 °W | Updated 3 seconds ago

Overcast
Overcast
23.7 °F
Feels Like 24 °F
N
0.0
Wind Variable Wind from South
Gusts 10.0 mph

Today
High -- | Low -- °F
--% Chance of Precip.
Yesterday
High -- | Low -- °F
Precip. -- in
6:50 AM 4:22 PM
Waxing Crescent, 20% visible
Pressure 30.17 in
Visibility 10.0 miles
Clouds Overcast 1400 ft
Windchill 24 °F
Dew Point 20 °F
Humidity 87%
Rainfall 0.00 in
Snow Depth Not available.
UV 0 out of 12
Pollen .10 out of 12
Air Quality Not available.
Flu Activity Not available.
METAR KIGQ 261355Z AUTO 12004KT 10SM OVC014 M04/M07 A3017 RMK AO2 T10451072

More Conditions Fewer Conditions

Pressure 30.17 in
Visibility 10.0 miles
Clouds Overcast 1400 ft
Windchill 24 °F
Dew Point 20 °F
Humidity 87%
Rainfall 0.00 in
Snow Depth Not available.
UV 0 out of 12
Pollen .10 out of 12
Air Quality Not available.
Flu Activity Not available.
METAR KIGQ 261355Z AUTO 12004KT 10SM OVC014 M04/M07 A3017 RMK AO2 T10451072

More Conditions Fewer Conditions

10-Day Weather Forecast

Almanac

Astronomy

Nov. 26, 2014 Rise Set
Actual Time
Civil Twilight
Nautical Twilight
Astronomical Twilight
Moon
Length of Visible Light
Length of Day
Tomorrow will be .
, % of the Moon is Illuminated

Today's Extremes

State Highs State Lows

Community

WunderPhotos

Upload Photos

1,773,745 photos uploaded!

WunderBlogs® & News

Nearby

Air Quality

  Air Quality AQ Index Pollutant
Not available.

Snow Depth

Station Depth Elevation

Earthquake Activity

City Distance Mag. Time & Date
Minimum magnitude displayed is 2.5.

Coastal Water Temperatures

Place Temperature

Nearby Weather Stations